SWA3104 KMCO-KCMH
Flight info
| Callsign | SWA3104 |
|---|---|
| Flight time | 1h 51m |
| Altitude | 34000 |
| Route | JEEMY4 PAINN SHRKS Q77 TEUFL/N0451F350 Q77 WIGVO IRQ BURGG MCGNS SCRLT2 |
| Aircraft | B738/M-SDE2E3FGHIRWXY/LB1 |
Departure
| Time | 2026-05-04 17:16 |
|---|---|
| Airport | Orlando International Airport (KMCO) |
Arrival
| Time | 2026-05-04 19:07 |
|---|---|
| Airport | John Glenn Columbus International Airport (KCMH) |
| Time | Latitude | Longitude | Altitude | Speed | Heading |
|---|---|---|---|---|---|
| 2026-05-04 16:50 | 28.43608 | -81.30287 | 100 ft | 0 kts | 166° |
| 2026-05-04 17:03 | 28.43610 | -81.30288 | 100 ft | 1 kts | 165° |
| 2026-05-04 17:03 | 28.43626 | -81.30293 | 102 ft | 3 kts | 157° |
| 2026-05-04 17:03 | 28.43658 | -81.30318 | 99 ft | 3 kts | 121° |
| 2026-05-04 17:04 | 28.43661 | -81.30350 | 99 ft | 1 kts | 52° |
| 2026-05-04 17:04 | 28.43659 | -81.30354 | 99 ft | 0 kts | 52° |
| 2026-05-04 17:06 | 28.43669 | -81.30339 | 97 ft | 7 kts | 52° |
| 2026-05-04 17:07 | 28.43791 | -81.30199 | 100 ft | 16 kts | 21° |
| 2026-05-04 17:07 | 28.43852 | -81.30173 | 100 ft | 12 kts | 21° |
| 2026-05-04 17:07 | 28.43899 | -81.30053 | 102 ft | 16 kts | 94° |
| 2026-05-04 17:07 | 28.43869 | -81.29927 | 103 ft | 18 kts | 121° |
| 2026-05-04 17:08 | 28.43776 | -81.29831 | 102 ft | 19 kts | 155° |
| 2026-05-04 17:08 | 28.43528 | -81.29804 | 103 ft | 18 kts | 179° |
| 2026-05-04 17:08 | 28.43412 | -81.29805 | 102 ft | 17 kts | 180° |
| 2026-05-04 17:09 | 28.43292 | -81.29803 | 102 ft | 17 kts | 180° |
| 2026-05-04 17:09 | 28.43173 | -81.29801 | 102 ft | 17 kts | 179° |
| 2026-05-04 17:09 | 28.43058 | -81.29800 | 102 ft | 17 kts | 179° |
| 2026-05-04 17:10 | 28.42815 | -81.29798 | 102 ft | 18 kts | 179° |
| 2026-05-04 17:10 | 28.42423 | -81.29794 | 101 ft | 19 kts | 180° |
| 2026-05-04 17:11 | 28.42295 | -81.29793 | 101 ft | 19 kts | 179° |
| 2026-05-04 17:11 | 28.42163 | -81.29791 | 101 ft | 19 kts | 180° |
| 2026-05-04 17:11 | 28.41922 | -81.29789 | 101 ft | 15 kts | 179° |
| 2026-05-04 17:12 | 28.41812 | -81.29788 | 101 ft | 16 kts | 179° |
| 2026-05-04 17:12 | 28.41572 | -81.29786 | 101 ft | 18 kts | 179° |
| 2026-05-04 17:13 | 28.41189 | -81.29782 | 100 ft | 18 kts | 179° |
| 2026-05-04 17:14 | 28.40824 | -81.29746 | 98 ft | 16 kts | 114° |
| 2026-05-04 17:14 | 28.40821 | -81.29675 | 97 ft | 0 kts | 88° |
| 2026-05-04 17:14 | 28.40822 | -81.29635 | 98 ft | 8 kts | 89° |
| 2026-05-04 17:15 | 28.40850 | -81.29562 | 96 ft | 12 kts | 19° |
| 2026-05-04 17:15 | 28.41436 | -81.29566 | 103 ft | 100 kts | 359° |
| 2026-05-04 17:16 | 28.43433 | -81.29570 | 428 ft | 170 kts | 4° |
| 2026-05-04 17:16 | 28.47115 | -81.28401 | 2475 ft | 197 kts | 34° |
| 2026-05-04 17:17 | 28.48301 | -81.27490 | 2986 ft | 214 kts | 37° |
| 2026-05-04 17:17 | 28.52575 | -81.25226 | 4662 ft | 244 kts | 8° |
| 2026-05-04 17:18 | 28.54288 | -81.25052 | 5267 ft | 249 kts | 4° |
| 2026-05-04 17:18 | 28.57814 | -81.25157 | 6329 ft | 269 kts | 354° |
| 2026-05-04 17:19 | 28.61389 | -81.26693 | 6966 ft | 281 kts | 335° |
| 2026-05-04 17:19 | 28.64870 | -81.28663 | 7017 ft | 281 kts | 324° |
| 2026-05-04 17:20 | 28.67962 | -81.31406 | 8383 ft | 281 kts | 319° |
| 2026-05-04 17:20 | 28.71076 | -81.34136 | 9882 ft | 285 kts | 320° |
| 2026-05-04 17:20 | 28.72671 | -81.35513 | 10418 ft | 295 kts | 321° |
| 2026-05-04 17:21 | 28.76696 | -81.37490 | 10725 ft | 343 kts | 347° |
| 2026-05-04 17:21 | 28.81550 | -81.38443 | 11688 ft | 359 kts | 348° |
| 2026-05-04 17:22 | 28.84016 | -81.38936 | 12378 ft | 360 kts | 348° |
| 2026-05-04 17:22 | 28.86490 | -81.39444 | 13012 ft | 363 kts | 347° |
| 2026-05-04 17:23 | 28.94003 | -81.41025 | 14754 ft | 372 kts | 347° |
| 2026-05-04 17:23 | 28.96563 | -81.41513 | 15301 ft | 376 kts | 350° |
| 2026-05-04 17:23 | 29.01827 | -81.42065 | 16390 ft | 383 kts | 352° |
| 2026-05-04 17:24 | 29.04490 | -81.42323 | 16925 ft | 386 kts | 351° |
| 2026-05-04 17:24 | 29.12606 | -81.43187 | 18454 ft | 395 kts | 351° |
| 2026-05-04 17:25 | 29.15357 | -81.43450 | 18903 ft | 398 kts | 351° |
| 2026-05-04 17:25 | 29.20912 | -81.43965 | 19805 ft | 403 kts | 351° |
| 2026-05-04 17:26 | 29.26525 | -81.44491 | 20728 ft | 407 kts | 351° |
| 2026-05-04 17:26 | 29.35071 | -81.45303 | 22076 ft | 414 kts | 350° |
| 2026-05-04 17:27 | 29.40847 | -81.45854 | 22887 ft | 419 kts | 349° |
| 2026-05-04 17:27 | 29.46658 | -81.46409 | 23680 ft | 424 kts | 349° |
| 2026-05-04 17:28 | 29.52570 | -81.46972 | 24357 ft | 428 kts | 349° |
| 2026-05-04 17:29 | 29.61510 | -81.47816 | 25399 ft | 433 kts | 349° |
| 2026-05-04 17:29 | 29.70585 | -81.48632 | 26355 ft | 438 kts | 349° |
| 2026-05-04 17:30 | 29.79763 | -81.49462 | 27280 ft | 443 kts | 348° |
| 2026-05-04 17:31 | 29.85934 | -81.50022 | 27904 ft | 446 kts | 348° |
| 2026-05-04 17:31 | 29.94930 | -81.52148 | 28745 ft | 437 kts | 335° |
| 2026-05-04 17:32 | 30.00661 | -81.54346 | 29489 ft | 435 kts | 334° |
| 2026-05-04 17:33 | 30.09244 | -81.57516 | 30690 ft | 430 kts | 335° |
| 2026-05-04 17:33 | 30.12102 | -81.58544 | 30974 ft | 430 kts | 335° |
| 2026-05-04 17:34 | 30.20624 | -81.61592 | 32026 ft | 425 kts | 334° |
| 2026-05-04 17:34 | 30.23443 | -81.62602 | 32298 ft | 424 kts | 334° |
| 2026-05-04 17:35 | 30.31873 | -81.65628 | 33198 ft | 421 kts | 334° |
| 2026-05-04 17:35 | 30.37459 | -81.67636 | 33718 ft | 419 kts | 334° |
| 2026-05-04 17:35 | 30.40242 | -81.68638 | 33954 ft | 419 kts | 334° |
| 2026-05-04 17:36 | 30.43026 | -81.69641 | 34148 ft | 420 kts | 334° |
| 2026-05-04 17:36 | 30.48641 | -81.71668 | 34134 ft | 423 kts | 334° |
| 2026-05-04 17:37 | 30.54235 | -81.73683 | 34130 ft | 418 kts | 334° |
| 2026-05-04 17:37 | 30.59730 | -81.75668 | 34135 ft | 415 kts | 334° |
| 2026-05-04 17:38 | 30.65349 | -81.77352 | 34140 ft | 421 kts | 340° |
| 2026-05-04 17:38 | 30.71147 | -81.78476 | 34161 ft | 423 kts | 341° |
| 2026-05-04 17:39 | 30.79869 | -81.80132 | 34122 ft | 423 kts | 341° |
| 2026-05-04 17:39 | 30.85668 | -81.81280 | 34132 ft | 423 kts | 341° |
| 2026-05-04 17:40 | 30.91467 | -81.82445 | 34132 ft | 423 kts | 340° |
| 2026-05-04 17:40 | 30.97285 | -81.83618 | 34114 ft | 424 kts | 340° |
| 2026-05-04 17:41 | 31.03080 | -81.84787 | 34122 ft | 426 kts | 340° |
| 2026-05-04 17:41 | 31.08920 | -81.85965 | 34118 ft | 426 kts | 340° |
| 2026-05-04 17:42 | 31.14773 | -81.87147 | 34115 ft | 426 kts | 340° |
| 2026-05-04 17:42 | 31.20626 | -81.88330 | 34115 ft | 426 kts | 340° |
| 2026-05-04 17:43 | 31.26474 | -81.89514 | 34122 ft | 426 kts | 340° |
| 2026-05-04 17:43 | 31.32283 | -81.90691 | 34146 ft | 426 kts | 340° |
| 2026-05-04 17:44 | 31.38113 | -81.91875 | 34133 ft | 425 kts | 340° |
| 2026-05-04 17:44 | 31.43929 | -81.93056 | 34145 ft | 423 kts | 340° |
| 2026-05-04 17:45 | 31.49722 | -81.94235 | 34141 ft | 422 kts | 340° |
| 2026-05-04 17:45 | 31.55494 | -81.95411 | 34177 ft | 420 kts | 340° |
| 2026-05-04 17:46 | 31.60289 | -81.96390 | 34158 ft | 419 kts | 340° |
| 2026-05-04 17:46 | 31.66025 | -81.97562 | 34111 ft | 418 kts | 340° |
| 2026-05-04 17:47 | 31.71760 | -81.98736 | 34112 ft | 418 kts | 340° |
| 2026-05-04 17:47 | 31.77486 | -81.99909 | 34114 ft | 417 kts | 340° |
| 2026-05-04 17:48 | 31.83217 | -82.01086 | 34159 ft | 418 kts | 341° |
| 2026-05-04 17:48 | 31.89029 | -82.02009 | 34115 ft | 429 kts | 348° |
| 2026-05-04 17:49 | 31.94983 | -82.02185 | 34112 ft | 432 kts | 350° |
| 2026-05-04 17:49 | 32.01048 | -82.02314 | 34113 ft | 433 kts | 349° |
| 2026-05-04 17:50 | 32.07042 | -82.02488 | 34111 ft | 434 kts | 349° |
| 2026-05-04 17:50 | 32.13085 | -82.02689 | 34116 ft | 435 kts | 349° |
| 2026-05-04 17:51 | 32.19152 | -82.02897 | 34114 ft | 436 kts | 349° |
| 2026-05-04 17:51 | 32.25236 | -82.03104 | 34110 ft | 437 kts | 349° |
| 2026-05-04 17:52 | 32.31278 | -82.03309 | 34105 ft | 437 kts | 349° |
| 2026-05-04 17:52 | 32.37353 | -82.03515 | 34153 ft | 437 kts | 350° |
| 2026-05-04 17:53 | 32.43433 | -82.03723 | 34123 ft | 437 kts | 350° |
| 2026-05-04 17:53 | 32.49490 | -82.04069 | 34109 ft | 433 kts | 347° |
| 2026-05-04 17:54 | 32.55490 | -82.04685 | 34108 ft | 432 kts | 347° |
| 2026-05-04 17:54 | 32.61478 | -82.05322 | 34103 ft | 432 kts | 347° |
| 2026-05-04 17:55 | 32.67480 | -82.05933 | 34093 ft | 432 kts | 347° |
| 2026-05-04 17:55 | 32.73469 | -82.06526 | 34094 ft | 432 kts | 347° |
| 2026-05-04 17:56 | 32.79463 | -82.07115 | 34100 ft | 432 kts | 347° |
| 2026-05-04 17:56 | 32.85412 | -82.07701 | 34097 ft | 432 kts | 347° |
| 2026-05-04 17:57 | 32.91394 | -82.08291 | 34114 ft | 431 kts | 348° |
| 2026-05-04 17:57 | 32.97389 | -82.08884 | 34101 ft | 432 kts | 348° |
| 2026-05-04 17:58 | 33.03383 | -82.09478 | 34094 ft | 433 kts | 348° |
| 2026-05-04 17:58 | 33.09407 | -82.10076 | 34099 ft | 434 kts | 348° |
| 2026-05-04 17:59 | 33.15384 | -82.10669 | 34095 ft | 434 kts | 348° |
| 2026-05-04 18:00 | 33.24430 | -82.11569 | 34104 ft | 435 kts | 348° |
| 2026-05-04 18:00 | 33.30469 | -82.12171 | 34095 ft | 435 kts | 348° |
| 2026-05-04 18:01 | 33.36510 | -82.12773 | 34103 ft | 436 kts | 348° |
| 2026-05-04 18:01 | 33.42553 | -82.13377 | 34099 ft | 436 kts | 348° |
| 2026-05-04 18:02 | 33.51638 | -82.14286 | 34109 ft | 436 kts | 348° |
| 2026-05-04 18:02 | 33.57686 | -82.14892 | 34104 ft | 436 kts | 348° |
| 2026-05-04 18:03 | 33.63745 | -82.15500 | 34098 ft | 436 kts | 348° |
| 2026-05-04 18:03 | 33.69798 | -82.16086 | 34089 ft | 437 kts | 351° |
| 2026-05-04 18:04 | 33.75903 | -82.15460 | 34112 ft | 447 kts | 2° |
| 2026-05-04 18:05 | 33.85141 | -82.13725 | 34091 ft | 447 kts | 2° |
| 2026-05-04 18:05 | 33.91290 | -82.12606 | 34103 ft | 447 kts | 2° |
| 2026-05-04 18:06 | 34.00514 | -82.10980 | 34101 ft | 447 kts | 2° |
| 2026-05-04 18:06 | 34.06666 | -82.09900 | 34100 ft | 447 kts | 2° |
| 2026-05-04 18:07 | 34.12817 | -82.08819 | 34100 ft | 446 kts | 2° |
| 2026-05-04 18:07 | 34.18922 | -82.07742 | 34106 ft | 446 kts | 2° |
| 2026-05-04 18:08 | 34.25074 | -82.06656 | 34114 ft | 447 kts | 2° |
| 2026-05-04 18:08 | 34.31227 | -82.05568 | 34105 ft | 447 kts | 2° |
| 2026-05-04 18:09 | 34.43524 | -82.03388 | 34096 ft | 446 kts | 2° |
| 2026-05-04 18:10 | 34.49663 | -82.02298 | 34107 ft | 446 kts | 2° |
| 2026-05-04 18:10 | 34.55811 | -82.01205 | 34096 ft | 446 kts | 2° |
| 2026-05-04 18:11 | 34.61949 | -82.00111 | 34089 ft | 445 kts | 2° |
| 2026-05-04 18:11 | 34.68071 | -81.99018 | 34084 ft | 445 kts | 2° |
| 2026-05-04 18:12 | 34.74149 | -81.97932 | 34115 ft | 444 kts | 2° |
| 2026-05-04 18:12 | 34.80265 | -81.96838 | 34088 ft | 444 kts | 2° |
| 2026-05-04 18:13 | 34.86370 | -81.95744 | 34083 ft | 443 kts | 2° |
| 2026-05-04 18:14 | 34.95517 | -81.94101 | 34083 ft | 442 kts | 2° |
| 2026-05-04 18:14 | 35.01591 | -81.93009 | 34090 ft | 441 kts | 1° |
| 2026-05-04 18:15 | 35.07593 | -81.92819 | 34086 ft | 430 kts | 350° |
| 2026-05-04 18:15 | 35.13560 | -81.93265 | 34072 ft | 429 kts | 349° |
| 2026-05-04 18:16 | 35.19520 | -81.93714 | 34057 ft | 429 kts | 350° |
| 2026-05-04 18:16 | 35.25476 | -81.94125 | 34089 ft | 429 kts | 350° |
| 2026-05-04 18:17 | 35.34411 | -81.94709 | 34065 ft | 428 kts | 350° |
| 2026-05-04 18:18 | 35.43336 | -81.95285 | 34066 ft | 428 kts | 350° |
| 2026-05-04 18:18 | 35.49282 | -81.95671 | 34085 ft | 427 kts | 350° |
| 2026-05-04 18:19 | 35.58142 | -81.96248 | 34060 ft | 427 kts | 350° |
| 2026-05-04 18:19 | 35.64080 | -81.96635 | 34055 ft | 426 kts | 350° |
| 2026-05-04 18:20 | 35.70007 | -81.97022 | 34043 ft | 426 kts | 350° |
| 2026-05-04 18:20 | 35.75932 | -81.97409 | 34051 ft | 426 kts | 350° |
| 2026-05-04 18:21 | 35.81850 | -81.97797 | 34049 ft | 426 kts | 350° |
| 2026-05-04 18:21 | 35.87773 | -81.98186 | 34044 ft | 427 kts | 350° |
| 2026-05-04 18:22 | 35.93713 | -81.98576 | 34042 ft | 427 kts | 350° |
| 2026-05-04 18:22 | 35.99620 | -81.98965 | 34072 ft | 428 kts | 350° |
| 2026-05-04 18:23 | 36.05567 | -81.99357 | 34061 ft | 428 kts | 350° |
| 2026-05-04 18:23 | 36.11517 | -81.99750 | 34039 ft | 428 kts | 350° |
| 2026-05-04 18:24 | 36.17454 | -82.00140 | 34043 ft | 427 kts | 350° |
| 2026-05-04 18:24 | 36.23377 | -82.00531 | 34046 ft | 425 kts | 350° |
| 2026-05-04 18:25 | 36.29276 | -82.00923 | 34047 ft | 424 kts | 349° |
| 2026-05-04 18:25 | 36.35156 | -82.01313 | 34044 ft | 422 kts | 349° |
| 2026-05-04 18:26 | 36.40976 | -82.01699 | 34036 ft | 420 kts | 349° |
| 2026-05-04 18:26 | 36.46805 | -82.02087 | 34038 ft | 419 kts | 349° |
| 2026-05-04 18:27 | 36.52614 | -82.02474 | 34048 ft | 418 kts | 349° |
| 2026-05-04 18:27 | 36.58405 | -82.02862 | 34070 ft | 416 kts | 349° |
| 2026-05-04 18:28 | 36.64185 | -82.03248 | 34070 ft | 416 kts | 349° |
| 2026-05-04 18:28 | 36.69955 | -82.03635 | 34072 ft | 415 kts | 349° |
| 2026-05-04 18:29 | 36.75725 | -82.04024 | 34083 ft | 416 kts | 349° |
| 2026-05-04 18:29 | 36.81511 | -82.04413 | 34074 ft | 416 kts | 348° |
| 2026-05-04 18:30 | 36.90187 | -82.04997 | 34052 ft | 417 kts | 349° |
| 2026-05-04 18:31 | 36.95998 | -82.05390 | 34060 ft | 419 kts | 349° |
| 2026-05-04 18:31 | 37.01838 | -82.05785 | 34054 ft | 421 kts | 349° |
| 2026-05-04 18:32 | 37.06703 | -82.06114 | 34043 ft | 422 kts | 349° |
| 2026-05-04 18:32 | 37.12577 | -82.06512 | 34037 ft | 424 kts | 349° |
| 2026-05-04 18:33 | 37.18469 | -82.06910 | 34039 ft | 424 kts | 349° |
| 2026-05-04 18:33 | 37.24367 | -82.07310 | 34026 ft | 425 kts | 350° |
| 2026-05-04 18:34 | 37.30273 | -82.07711 | 33997 ft | 424 kts | 350° |
| 2026-05-04 18:34 | 37.36170 | -82.08114 | 33978 ft | 424 kts | 350° |
| 2026-05-04 18:35 | 37.42019 | -82.08517 | 33977 ft | 423 kts | 350° |
| 2026-05-04 18:35 | 37.47895 | -82.08915 | 33978 ft | 423 kts | 350° |
| 2026-05-04 18:36 | 37.53759 | -82.09315 | 33985 ft | 421 kts | 350° |
| 2026-05-04 18:36 | 37.59607 | -82.09718 | 33932 ft | 421 kts | 350° |
| 2026-05-04 18:37 | 37.65428 | -82.10120 | 33957 ft | 419 kts | 350° |
| 2026-05-04 18:37 | 37.71260 | -82.10521 | 33983 ft | 419 kts | 351° |
| 2026-05-04 18:38 | 37.77068 | -82.10920 | 33957 ft | 420 kts | 351° |
| 2026-05-04 18:38 | 37.82912 | -82.11323 | 33952 ft | 421 kts | 351° |
| 2026-05-04 18:39 | 37.88769 | -82.11728 | 33943 ft | 421 kts | 351° |
| 2026-05-04 18:39 | 37.94618 | -82.12133 | 33943 ft | 421 kts | 351° |
| 2026-05-04 18:40 | 38.00480 | -82.12539 | 33901 ft | 420 kts | 351° |
| 2026-05-04 18:40 | 38.03355 | -82.12738 | 33517 ft | 417 kts | 351° |
| 2026-05-04 18:40 | 38.06232 | -82.12934 | 33145 ft | 411 kts | 351° |
| 2026-05-04 18:40 | 38.09077 | -82.13129 | 32803 ft | 406 kts | 351° |
| 2026-05-04 18:41 | 38.11890 | -82.13325 | 32360 ft | 403 kts | 351° |
| 2026-05-04 18:41 | 38.14683 | -82.13519 | 31965 ft | 399 kts | 351° |
| 2026-05-04 18:41 | 38.17441 | -82.13711 | 31620 ft | 395 kts | 351° |
| 2026-05-04 18:41 | 38.20180 | -82.13903 | 31191 ft | 393 kts | 351° |
| 2026-05-04 18:42 | 38.22903 | -82.14094 | 30807 ft | 390 kts | 351° |
| 2026-05-04 18:42 | 38.25608 | -82.14284 | 30428 ft | 388 kts | 351° |
| 2026-05-04 18:42 | 38.28297 | -82.14473 | 30048 ft | 385 kts | 350° |
| 2026-05-04 18:42 | 38.30966 | -82.14660 | 29613 ft | 383 kts | 350° |
| 2026-05-04 18:43 | 38.33581 | -82.14844 | 29238 ft | 379 kts | 350° |
| 2026-05-04 18:43 | 38.36205 | -82.15028 | 28804 ft | 376 kts | 351° |
| 2026-05-04 18:43 | 38.38802 | -82.15209 | 28449 ft | 372 kts | 350° |
| 2026-05-04 18:43 | 38.41376 | -82.15391 | 28043 ft | 370 kts | 350° |
| 2026-05-04 18:44 | 38.43935 | -82.15571 | 27655 ft | 367 kts | 350° |
| 2026-05-04 18:44 | 38.45623 | -82.15690 | 27392 ft | 365 kts | 350° |
| 2026-05-04 18:44 | 38.49003 | -82.15949 | 26894 ft | 361 kts | 348° |
| 2026-05-04 18:44 | 38.51491 | -82.16320 | 26426 ft | 359 kts | 345° |
| 2026-05-04 18:45 | 38.53952 | -82.16782 | 26051 ft | 356 kts | 345° |
| 2026-05-04 18:45 | 38.56399 | -82.17266 | 25661 ft | 355 kts | 345° |
| 2026-05-04 18:45 | 38.58833 | -82.17748 | 25294 ft | 353 kts | 345° |
| 2026-05-04 18:45 | 38.61259 | -82.18221 | 24921 ft | 352 kts | 345° |
| 2026-05-04 18:46 | 38.63671 | -82.18684 | 24572 ft | 351 kts | 345° |
| 2026-05-04 18:46 | 38.66085 | -82.19143 | 24203 ft | 350 kts | 345° |
| 2026-05-04 18:46 | 38.68493 | -82.19598 | 23826 ft | 350 kts | 345° |
| 2026-05-04 18:46 | 38.70900 | -82.20051 | 23445 ft | 349 kts | 345° |
| 2026-05-04 18:47 | 38.73272 | -82.20496 | 23027 ft | 348 kts | 345° |
| 2026-05-04 18:47 | 38.75658 | -82.20943 | 22636 ft | 346 kts | 345° |
| 2026-05-04 18:47 | 38.78038 | -82.21388 | 22262 ft | 344 kts | 345° |
| 2026-05-04 18:47 | 38.80402 | -82.21831 | 21893 ft | 342 kts | 345° |
| 2026-05-04 18:48 | 38.82751 | -82.22272 | 21538 ft | 340 kts | 345° |
| 2026-05-04 18:48 | 38.85082 | -82.22710 | 21182 ft | 338 kts | 345° |
| 2026-05-04 18:48 | 38.87409 | -82.23148 | 20850 ft | 336 kts | 345° |
| 2026-05-04 18:48 | 38.89719 | -82.23583 | 20489 ft | 335 kts | 345° |
| 2026-05-04 18:49 | 38.92021 | -82.24016 | 20132 ft | 334 kts | 345° |
| 2026-05-04 18:49 | 38.94312 | -82.24448 | 19785 ft | 332 kts | 345° |
| 2026-05-04 18:49 | 38.96596 | -82.24879 | 19423 ft | 331 kts | 345° |
| 2026-05-04 18:49 | 38.98867 | -82.25308 | 19074 ft | 329 kts | 345° |
| 2026-05-04 18:50 | 39.01133 | -82.25736 | 18743 ft | 329 kts | 345° |
| 2026-05-04 18:50 | 39.03393 | -82.26163 | 18400 ft | 327 kts | 345° |
| 2026-05-04 18:50 | 39.05625 | -82.26585 | 18036 ft | 327 kts | 345° |
| 2026-05-04 18:50 | 39.07873 | -82.27010 | 17650 ft | 326 kts | 345° |
| 2026-05-04 18:51 | 39.10120 | -82.27435 | 17233 ft | 326 kts | 346° |
| 2026-05-04 18:51 | 39.12372 | -82.27861 | 16816 ft | 326 kts | 346° |
| 2026-05-04 18:51 | 39.14614 | -82.28285 | 16445 ft | 325 kts | 346° |
| 2026-05-04 18:51 | 39.16850 | -82.28708 | 16087 ft | 324 kts | 346° |
| 2026-05-04 18:52 | 39.19075 | -82.29129 | 15743 ft | 322 kts | 346° |
| 2026-05-04 18:52 | 39.21288 | -82.29549 | 15398 ft | 321 kts | 346° |
| 2026-05-04 18:52 | 39.23494 | -82.29968 | 15059 ft | 319 kts | 346° |
| 2026-05-04 18:52 | 39.25690 | -82.30385 | 14724 ft | 317 kts | 346° |
| 2026-05-04 18:53 | 39.27868 | -82.30799 | 14383 ft | 316 kts | 345° |
| 2026-05-04 18:53 | 39.30032 | -82.31211 | 14124 ft | 312 kts | 346° |
| 2026-05-04 18:53 | 39.32166 | -82.31616 | 13837 ft | 309 kts | 346° |
| 2026-05-04 18:53 | 39.34289 | -82.32020 | 13525 ft | 308 kts | 345° |
| 2026-05-04 18:54 | 39.36403 | -82.32424 | 13168 ft | 307 kts | 345° |
| 2026-05-04 18:54 | 39.38486 | -82.32823 | 12829 ft | 306 kts | 345° |
| 2026-05-04 18:54 | 39.40593 | -82.33226 | 12496 ft | 305 kts | 345° |
| 2026-05-04 18:54 | 39.42683 | -82.33626 | 12170 ft | 303 kts | 344° |
| 2026-05-04 18:55 | 39.44775 | -82.34025 | 11846 ft | 302 kts | 344° |
| 2026-05-04 18:55 | 39.48910 | -82.34818 | 11213 ft | 299 kts | 343° |
| 2026-05-04 18:55 | 39.50843 | -82.35620 | 10881 ft | 286 kts | 324° |
| 2026-05-04 18:56 | 39.52479 | -82.37021 | 10582 ft | 280 kts | 318° |
| 2026-05-04 18:56 | 39.54045 | -82.38515 | 10361 ft | 276 kts | 317° |
| 2026-05-04 18:56 | 39.55546 | -82.39960 | 10230 ft | 268 kts | 317° |
| 2026-05-04 18:56 | 39.57028 | -82.41383 | 10112 ft | 261 kts | 317° |
| 2026-05-04 18:57 | 39.58475 | -82.42766 | 9945 ft | 256 kts | 317° |
| 2026-05-04 18:57 | 39.59911 | -82.44138 | 9680 ft | 255 kts | 317° |
| 2026-05-04 18:57 | 39.61340 | -82.45498 | 9395 ft | 254 kts | 317° |
| 2026-05-04 18:57 | 39.62761 | -82.46849 | 9125 ft | 253 kts | 317° |
| 2026-05-04 18:58 | 39.64184 | -82.48202 | 8852 ft | 253 kts | 317° |
| 2026-05-04 18:58 | 39.65601 | -82.49546 | 8583 ft | 251 kts | 317° |
| 2026-05-04 18:58 | 39.67007 | -82.50881 | 8318 ft | 250 kts | 317° |
| 2026-05-04 18:58 | 39.68406 | -82.52207 | 8057 ft | 248 kts | 317° |
| 2026-05-04 18:59 | 39.69792 | -82.53522 | 7808 ft | 246 kts | 317° |
| 2026-05-04 18:59 | 39.71175 | -82.54836 | 7556 ft | 246 kts | 317° |
| 2026-05-04 18:59 | 39.72575 | -82.56118 | 7294 ft | 246 kts | 319° |
| 2026-05-04 18:59 | 39.73998 | -82.57358 | 7024 ft | 246 kts | 319° |
| 2026-05-04 19:00 | 39.75419 | -82.58594 | 6769 ft | 245 kts | 319° |
| 2026-05-04 19:00 | 39.76820 | -82.59816 | 6509 ft | 246 kts | 320° |
| 2026-05-04 19:00 | 39.78254 | -82.61076 | 6238 ft | 246 kts | 320° |
| 2026-05-04 19:00 | 39.79654 | -82.62306 | 5962 ft | 246 kts | 320° |
| 2026-05-04 19:01 | 39.81107 | -82.63505 | 5669 ft | 251 kts | 330° |
| 2026-05-04 19:01 | 39.82847 | -82.63952 | 5459 ft | 257 kts | 351° |
| 2026-05-04 19:01 | 39.84603 | -82.64101 | 5355 ft | 249 kts | 349° |
| 2026-05-04 19:01 | 39.86308 | -82.64274 | 5246 ft | 242 kts | 349° |
| 2026-05-04 19:02 | 39.87959 | -82.64446 | 5128 ft | 234 kts | 349° |
| 2026-05-04 19:02 | 39.89563 | -82.64614 | 5035 ft | 230 kts | 349° |
| 2026-05-04 19:02 | 39.91145 | -82.64859 | 4846 ft | 227 kts | 339° |
| 2026-05-04 19:02 | 39.92615 | -82.65485 | 4615 ft | 220 kts | 334° |
| 2026-05-04 19:03 | 39.94057 | -82.66108 | 4328 ft | 217 kts | 334° |
| 2026-05-04 19:03 | 39.95474 | -82.66707 | 4029 ft | 210 kts | 334° |
| 2026-05-04 19:03 | 39.96617 | -82.67680 | 3748 ft | 188 kts | 298° |
| 2026-05-04 19:03 | 39.97319 | -82.69044 | 3530 ft | 178 kts | 297° |
| 2026-05-04 19:04 | 39.98006 | -82.70336 | 3307 ft | 167 kts | 294° |
| 2026-05-04 19:04 | 39.98249 | -82.71673 | 3113 ft | 147 kts | 264° |
| 2026-05-04 19:04 | 39.98361 | -82.73060 | 2989 ft | 157 kts | 272° |
| 2026-05-04 19:04 | 39.98456 | -82.74471 | 2766 ft | 155 kts | 268° |
| 2026-05-04 19:05 | 39.98522 | -82.75862 | 2562 ft | 152 kts | 268° |
| 2026-05-04 19:05 | 39.98596 | -82.77235 | 2370 ft | 152 kts | 268° |
| 2026-05-04 19:05 | 39.98671 | -82.78614 | 2168 ft | 153 kts | 265° |
| 2026-05-04 19:05 | 39.98748 | -82.79975 | 1976 ft | 146 kts | 266° |
| 2026-05-04 19:06 | 39.98822 | -82.81277 | 1780 ft | 146 kts | 266° |
| 2026-05-04 19:06 | 39.98914 | -82.82647 | 1597 ft | 155 kts | 269° |
| 2026-05-04 19:06 | 39.99032 | -82.84029 | 1445 ft | 157 kts | 268° |
| 2026-05-04 19:06 | 39.99098 | -82.85434 | 1303 ft | 152 kts | 263° |
| 2026-05-04 19:07 | 39.99129 | -82.86830 | 960 ft | 162 kts | 268° |
| 2026-05-04 19:07 | 39.99216 | -82.88253 | 831 ft | 150 kts | 267° |
| 2026-05-04 19:07 | 39.99295 | -82.89498 | 821 ft | 94 kts | 277° |
| 2026-05-04 19:07 | 39.99331 | -82.89996 | 818 ft | 32 kts | 295° |
| 2026-05-04 19:08 | 39.99417 | -82.90187 | 815 ft | 14 kts | 304° |
| 2026-05-04 19:08 | 39.99491 | -82.90181 | 814 ft | 17 kts | 63° |
| 2026-05-04 19:08 | 39.99490 | -82.90008 | 820 ft | 22 kts | 93° |
| 2026-05-04 19:08 | 39.99478 | -82.89791 | 823 ft | 27 kts | 95° |
| 2026-05-04 19:09 | 39.99465 | -82.89540 | 823 ft | 26 kts | 94° |
| 2026-05-04 19:09 | 39.99452 | -82.89309 | 824 ft | 24 kts | 94° |
| 2026-05-04 19:09 | 39.99438 | -82.89076 | 821 ft | 27 kts | 92° |
| 2026-05-04 19:09 | 39.99426 | -82.88842 | 820 ft | 26 kts | 94° |
| 2026-05-04 19:10 | 39.99411 | -82.88590 | 811 ft | 29 kts | 94° |
| 2026-05-04 19:10 | 39.99406 | -82.88365 | 819 ft | 21 kts | 69° |
| 2026-05-04 19:10 | 39.99503 | -82.88246 | 818 ft | 22 kts | 88° |
| 2026-05-04 19:10 | 39.99493 | -82.88058 | 820 ft | 17 kts | 94° |
| 2026-05-04 19:11 | 39.99530 | -82.87929 | 822 ft | 18 kts | 18° |
| 2026-05-04 19:11 | 39.99654 | -82.87913 | 821 ft | 14 kts | 5° |
| 2026-05-04 19:11 | 39.99738 | -82.87930 | 822 ft | 8 kts | 290° |
| 2026-05-04 19:11 | 39.99744 | -82.88010 | 818 ft | 0 kts | 274° |
| 2026-05-04 19:12 | 39.99744 | -82.88014 | 819 ft | 0 kts | 274° |